createdAt,value
2018-09-27T00:01:23.113Z,99.90
2018-09-27T00:06:26.506Z,99.90
2018-09-27T00:16:32.917Z,99.90
2018-09-27T00:21:36.230Z,99.90
2018-09-27T00:26:40.147Z,99.90
2018-09-27T00:31:43.461Z,99.90
2018-09-27T00:36:46.775Z,99.90
2018-09-27T00:41:50.108Z,99.90
2018-09-27T00:46:53.397Z,99.90
2018-09-27T00:51:56.892Z,99.90
2018-09-27T00:57:00.489Z,99.90
2018-09-27T01:02:04.099Z,99.90
2018-09-27T01:07:07.614Z,99.90
2018-09-27T01:12:10.941Z,99.90
2018-09-27T01:17:14.343Z,99.90
2018-09-27T01:22:17.802Z,99.90
2018-09-27T01:27:21.197Z,99.90
2018-09-27T01:32:24.579Z,99.90
2018-09-27T01:37:29.150Z,99.90
2018-09-27T01:42:32.438Z,99.90
2018-09-27T01:47:35.874Z,99.90
2018-09-27T01:52:39.229Z,99.90
2018-09-27T01:57:42.526Z,99.90
2018-09-27T02:02:46.037Z,99.90
2018-09-27T02:07:49.348Z,99.90
2018-09-27T02:12:52.615Z,99.90
2018-09-27T02:17:56.057Z,99.90
2018-09-27T02:22:59.324Z,99.90
2018-09-27T02:28:02.634Z,99.90
2018-09-27T02:33:05.967Z,99.90
2018-09-27T02:38:09.334Z,99.90
2018-09-27T02:43:12.618Z,99.90
2018-09-27T02:48:15.929Z,99.90
2018-09-27T02:53:19.212Z,99.90
2018-09-27T02:58:22.489Z,99.90
2018-09-27T03:03:25.833Z,99.90
2018-09-27T03:08:29.146Z,99.90
2018-09-27T03:13:32.581Z,99.90
2018-09-27T03:18:35.973Z,99.90
2018-09-27T03:23:39.297Z,99.90
2018-09-27T03:28:42.581Z,99.90
2018-09-27T03:33:46.073Z,99.90
2018-09-27T03:38:49.605Z,99.90
2018-09-27T03:43:53.052Z,99.90
2018-09-27T03:48:56.357Z,99.90
2018-09-27T03:53:59.643Z,99.90
2018-09-27T03:59:03.592Z,99.90
2018-09-27T04:04:06.907Z,99.90
2018-09-27T04:09:10.740Z,99.90
2018-09-27T04:14:14.035Z,99.90
2018-09-27T04:19:17.318Z,99.90
2018-09-27T04:24:20.630Z,99.90
2018-09-27T04:29:24.045Z,99.90
2018-09-27T04:34:27.433Z,99.90
2018-09-27T04:39:30.820Z,99.90
2018-09-27T04:44:34.125Z,99.90
2018-09-27T04:49:37.430Z,99.90
2018-09-27T04:54:40.738Z,99.90
2018-09-27T04:59:44.093Z,99.90
2018-09-27T05:04:47.566Z,99.90
2018-09-27T05:09:50.926Z,99.90
2018-09-27T05:14:54.337Z,99.90
2018-09-27T05:19:57.749Z,99.90
2018-09-27T05:25:01.165Z,99.90
2018-09-27T05:30:04.552Z,99.90
2018-09-27T05:35:08.013Z,99.90
2018-09-27T05:40:11.359Z,99.90
2018-09-27T05:45:14.757Z,99.90
2018-09-27T05:50:18.124Z,99.90
2018-09-27T05:55:21.552Z,99.90
2018-09-27T06:00:24.890Z,99.90
2018-09-27T06:10:31.509Z,99.90
2018-09-27T06:15:35.054Z,99.90
2018-09-27T06:20:38.633Z,99.90
2018-09-27T06:25:42.026Z,99.90
2018-09-27T06:30:45.599Z,99.90
2018-09-27T06:35:49.124Z,99.90
2018-09-27T06:40:52.592Z,99.90
2018-09-27T06:45:55.961Z,99.90
2018-09-27T06:50:59.460Z,99.90
2018-09-27T06:56:02.839Z,99.90
2018-09-27T07:01:06.582Z,99.90
2018-09-27T07:06:10.018Z,99.90
2018-09-27T07:11:13.563Z,99.90
2018-09-27T07:16:17.022Z,99.90
2018-09-27T07:21:20.396Z,99.90
2018-09-27T07:26:23.892Z,99.90
2018-09-27T07:31:27.271Z,99.90
2018-09-27T07:36:30.806Z,99.90
2018-09-27T07:41:34.177Z,99.90
2018-09-27T07:46:37.650Z,99.90
2018-09-27T07:51:41.021Z,99.90
2018-09-27T07:56:44.636Z,99.90
2018-09-27T08:01:48.053Z,99.90
2018-09-27T08:06:51.445Z,99.90
2018-09-27T08:11:54.939Z,99.90
2018-09-27T08:16:58.564Z,99.90
2018-09-27T08:22:02.090Z,99.90
2018-09-27T08:27:05.656Z,99.90
2018-09-27T08:32:09.157Z,99.90
2018-09-27T08:37:12.695Z,99.90
2018-09-27T08:42:16.262Z,99.90
2018-09-27T08:47:19.897Z,99.90
2018-09-27T08:52:23.557Z,99.90
2018-09-27T08:57:26.948Z,99.80
2018-09-27T09:02:30.350Z,99.90
2018-09-27T09:07:33.928Z,99.90
2018-09-27T09:12:37.292Z,99.90
2018-09-27T09:17:40.893Z,99.40
2018-09-27T09:22:44.349Z,99.70
2018-09-27T09:27:47.716Z,98.40
2018-09-27T09:32:51.120Z,98.10
2018-09-27T09:37:54.682Z,98.80
2018-09-27T09:42:58.391Z,97.40
2018-09-27T09:48:01.797Z,98.30
2018-09-27T09:53:05.352Z,97.30
2018-09-27T09:58:08.935Z,97.10
2018-09-27T10:03:12.348Z,98.00
2018-09-27T10:08:15.808Z,97.70
2018-09-27T10:13:19.177Z,97.20
2018-09-27T10:18:22.629Z,96.50
2018-09-27T10:23:26.017Z,95.50
2018-09-27T10:28:29.649Z,95.40
2018-09-27T10:33:33.181Z,95.70
2018-09-27T10:38:36.561Z,95.40
2018-09-27T10:43:40.021Z,93.50
2018-09-27T10:48:43.369Z,93.50
2018-09-27T10:53:46.791Z,93.70
2018-09-27T10:58:50.192Z,94.40
2018-09-27T11:03:53.587Z,93.30
2018-09-27T11:08:57.161Z,92.20
2018-09-27T11:14:00.541Z,92.60
2018-09-27T11:19:03.874Z,93.90
2018-09-27T11:24:07.284Z,90.70
2018-09-27T11:29:16.030Z,91.50
2018-09-27T11:34:19.438Z,90.30
2018-09-27T11:39:23.083Z,90.90
2018-09-27T11:44:26.586Z,91.00
2018-09-27T11:49:29.994Z,90.50
2018-09-27T11:54:33.445Z,89.10
2018-09-27T11:59:36.786Z,86.40
2018-09-27T12:04:40.173Z,86.00
2018-09-27T12:09:43.673Z,86.30
2018-09-27T12:14:46.979Z,87.40
2018-09-27T12:19:50.325Z,79.20
2018-09-27T12:24:53.673Z,79.30
2018-09-27T12:29:57.085Z,78.90
2018-09-27T12:35:00.477Z,76.00
2018-09-27T12:40:03.863Z,70.50
2018-09-27T12:45:07.367Z,69.00
2018-09-27T12:50:10.689Z,61.60
2018-09-27T12:55:14.037Z,62.20
2018-09-27T13:00:17.366Z,56.70
2018-09-27T13:05:20.708Z,59.50
2018-09-27T13:10:24.753Z,61.60
2018-09-27T13:15:28.068Z,55.40
2018-09-27T13:20:31.516Z,54.90
2018-09-27T13:25:34.881Z,58.90
2018-09-27T13:30:38.366Z,49.50
2018-09-27T13:35:41.709Z,49.60
2018-09-27T13:40:45.117Z,49.50
2018-09-27T13:45:48.557Z,50.90
2018-09-27T13:50:51.896Z,43.00
2018-09-27T13:55:55.300Z,41.50
2018-09-27T14:00:58.652Z,43.00
2018-09-27T14:06:01.999Z,46.00
2018-09-27T14:11:05.315Z,43.20
2018-09-27T14:16:08.781Z,47.30
2018-09-27T14:21:12.320Z,45.00
2018-09-27T14:26:15.734Z,44.70
2018-09-27T14:31:19.144Z,47.10
2018-09-27T14:36:22.628Z,48.20
2018-09-27T14:41:26.091Z,46.40
2018-09-27T14:46:29.566Z,46.60
2018-09-27T14:51:33.069Z,48.60
2018-09-27T14:56:36.470Z,48.70
2018-09-27T15:07:07.664Z,47.10
2018-09-27T15:12:11.160Z,45.70
2018-09-27T15:17:14.549Z,49.20
2018-09-27T15:22:17.890Z,46.50
2018-09-27T15:27:21.847Z,50.00
2018-09-27T15:32:25.205Z,46.30
2018-09-27T15:37:28.525Z,46.60
2018-09-27T15:42:31.936Z,44.20
2018-09-27T15:47:35.316Z,45.80
2018-09-27T15:52:38.653Z,45.10
2018-09-27T15:57:42.121Z,46.20
2018-09-27T16:02:45.569Z,51.70
2018-09-27T16:07:48.905Z,55.20
2018-09-27T16:12:52.289Z,62.60
2018-09-27T16:17:55.717Z,62.80
2018-09-27T16:22:59.066Z,68.60
2018-09-27T16:28:02.621Z,71.50
2018-09-27T16:33:06.127Z,71.50
2018-09-27T16:38:09.518Z,75.70
2018-09-27T16:43:12.910Z,75.40
2018-09-27T16:48:16.447Z,73.80
2018-09-27T16:53:19.778Z,79.40
2018-09-27T16:58:23.253Z,81.40
2018-09-27T17:03:26.696Z,82.30
2018-09-27T17:08:30.046Z,84.00
2018-09-27T17:13:33.461Z,84.00
2018-09-27T17:18:36.889Z,84.80
2018-09-27T17:23:40.318Z,87.80
2018-09-27T17:28:43.674Z,88.50
2018-09-27T17:33:47.341Z,89.40
2018-09-27T17:38:56.777Z,90.00
2018-09-27T17:44:00.224Z,92.10
2018-09-27T17:49:03.594Z,93.00
2018-09-27T17:54:07.629Z,92.50
2018-09-27T17:59:11.088Z,91.60
2018-09-27T18:04:14.400Z,91.70
2018-09-27T18:09:17.819Z,92.00
2018-09-27T18:14:21.165Z,92.70
2018-09-27T18:19:24.766Z,93.10
2018-09-27T18:24:28.073Z,93.70
2018-09-27T18:29:31.898Z,94.30
2018-09-27T18:34:35.257Z,95.10
2018-09-27T18:39:38.714Z,95.70
2018-09-27T18:44:42.610Z,96.00
2018-09-27T18:49:46.062Z,96.60
2018-09-27T18:54:49.421Z,97.30
2018-09-27T18:59:53.704Z,98.20
2018-09-27T19:04:57.279Z,98.40
2018-09-27T19:10:00.651Z,98.80
2018-09-27T19:15:04.209Z,98.90
2018-09-27T19:20:07.553Z,99.30
2018-09-27T19:25:11.772Z,99.20
2018-09-27T19:30:15.297Z,99.80
2018-09-27T19:35:18.604Z,99.50
2018-09-27T19:40:21.918Z,99.50
2018-09-27T19:45:25.312Z,99.90
2018-09-27T19:50:28.747Z,99.90
2018-09-27T19:55:32.158Z,99.60
2018-09-27T20:00:35.575Z,99.70
2018-09-27T20:05:39.424Z,99.90
2018-09-27T20:10:42.813Z,99.90
2018-09-27T20:15:46.129Z,99.90
2018-09-27T20:20:49.475Z,99.90
2018-09-27T20:25:52.884Z,99.90
2018-09-27T20:30:56.351Z,99.90
2018-09-27T20:35:59.969Z,99.90
2018-09-27T20:41:03.652Z,99.90
2018-09-27T20:46:07.867Z,99.90
2018-09-27T20:51:11.453Z,99.90
2018-09-27T20:56:14.957Z,99.90
2018-09-27T21:01:18.291Z,99.90
2018-09-27T21:06:21.772Z,99.90
2018-09-27T21:11:25.101Z,99.90
2018-09-27T21:16:28.433Z,99.90
2018-09-27T21:21:31.726Z,99.90
2018-09-27T21:26:35.186Z,99.90
2018-09-27T21:31:38.353Z,99.90
2018-09-27T21:36:41.629Z,99.90
2018-09-27T21:41:45.032Z,99.90
2018-09-27T21:46:48.333Z,99.90
2018-09-27T21:51:51.853Z,99.90
2018-09-27T21:56:55.177Z,99.90
2018-09-27T22:01:58.683Z,99.90
2018-09-27T22:07:02.070Z,99.90
2018-09-27T22:12:05.397Z,99.90
2018-09-27T22:17:08.686Z,99.90
2018-09-27T22:22:12.154Z,99.90
2018-09-27T22:27:15.456Z,99.90
2018-09-27T22:32:18.960Z,99.90
2018-09-27T22:37:22.330Z,99.90
2018-09-27T22:42:25.949Z,99.90
2018-09-27T22:47:29.245Z,99.90
2018-09-27T22:52:32.616Z,99.90
2018-09-27T22:57:36.074Z,99.90
2018-09-27T23:02:39.463Z,99.90
2018-09-27T23:07:42.899Z,99.90
2018-09-27T23:12:46.278Z,99.90
2018-09-27T23:17:49.753Z,99.90
2018-09-27T23:22:53.102Z,99.90
2018-09-27T23:27:56.499Z,99.90
2018-09-27T23:32:59.797Z,99.90
2018-09-27T23:38:03.244Z,99.90
2018-09-27T23:43:06.570Z,99.90
2018-09-27T23:48:10.077Z,99.90
2018-09-27T23:53:13.393Z,99.90
2018-09-27T23:58:16.688Z,99.90
